Impacts METAR Board
IDs:

KRYW - Lago Vista/Allen Arp, TX, US

Updated at: 1200 UTC 16 Jul 2019
Potential Impact None Slight Moderate High
Time 16/00Z 16/01Z 16/02Z 16/03Z 16/04Z 16/05Z 16/06Z 16/07Z 16/08Z 16/09Z 16/10Z 16/11Z 16/12Z
Temp88 85 83 83 82 81 79 78 77 76 75 76 75
Dewpt71 73 74 73 73 74 74 74 74 73 73 73 73
Altim29.92 29.92 29.92 29.93 29.95 29.97 29.98 29.98 29.99 29.99 29.99 30.00 30.02
VIS10 10 10 10 10 10 10 10 10 10 10 10 10
CIG-- -- -- -- -- -- -- -- -- -- 7 9 11
CoverCLRCLRCLRCLRCLRCLRCLRCLRSCTCLRBKNOVCOVC
FltCatVFRVFRVFRVFRVFRVFRVFRVFRVFRVFRIFRIFRMVFR
WX--------------------------
WDir170160160160150160190180190180170190190
WSpd4 4 3 3 4 9 6 7 6 5 7 8 4
WGst-- -- -- -- -- 14 -- -- -- -- -- -- --
Raw hourly METARs
KRYW 152355Z AUTO 17004KT 10SM CLR 31/22 A2992 RMK AO2 T03090217 10353 20290
KRYW 160055Z AUTO 16004KT 10SM CLR 30/23 A2992 RMK AO2 T02950227
KRYW 160155Z AUTO 16003KT 10SM CLR 28/23 A2992 RMK AO2 T02810231
KRYW 160255Z AUTO 16003KT 10SM CLR 28/23 A2993 RMK AO2 T02830228
KRYW 160355Z AUTO 15004KT 10SM CLR 28/23 A2995 RMK AO2 T02800228
KRYW 160455Z AUTO 16009G14KT 10SM CLR 27/23 A2997 RMK AO2 T02700232
KRYW 160555Z AUTO 19006KT 10SM CLR 26/24 A2998 RMK AO2 T02630235 10307 20263 403530225
KRYW 160655Z AUTO 18007KT 10SM CLR 26/24 A2998 RMK AO2 T02550235
KRYW 160755Z AUTO 19006KT 10SM SCT010 25/24 A2999 RMK AO2 T02500235
KRYW 160855Z AUTO 18005KT 10SM CLR 25/23 A2999 RMK AO2 T02450230
KRYW 160955Z AUTO 17007KT 10SM BKN007 24/23 A2999 RMK AO2 T02400230
KRYW 161055Z AUTO 19008KT 10SM OVC009 24/23 A3000 RMK AO2 T02420230
KRYW 161155Z AUTO 19004KT 10SM OVC011 24/23 A3002 RMK AO2 T02410228 10263 20240